Time;durP1;ratioP1;P1;durP2;ratioP2;P2;SDS_P1;SDS_P2;PMS_P1;PMS_P2;Temp;Humidity;BMP_temperature;BMP_pressure;BME280_temperature;BME280_humidity;BME280_pressure;Samples;Min_cycle;Max_cycle;Signal;HPM_P1;HPM_P2
2021/06/25 00:01:08;;;;;;;4.70;4.03;;;;;;;22.63;66.36;99201.28;5021564;28;20240;-81
2021/06/25 00:03:35;;;;;;;5.05;4.55;;;;;;;22.45;66.92;99204.94;5037891;28;20654;-82
2021/06/25 00:06:02;;;;;;;6.50;3.93;;;;;;;22.65;66.00;99220.88;5037794;28;20225;-87
2021/06/25 00:08:29;;;;;;;4.40;3.95;;;;;;;22.39;66.40;99224.19;5041580;28;20223;-82
2021/06/25 00:10:56;;;;;;;4.22;3.83;;;;;;;22.40;66.98;99233.16;5025559;28;20231;-87
2021/06/25 00:13:22;;;;;;;4.93;4.43;;;;;;;22.32;67.36;99231.97;5025818;28;20232;-86
2021/06/25 00:15:49;;;;;;;4.60;4.20;;;;;;;22.30;67.34;99222.50;5041831;28;20318;-82
2021/06/25 00:18:16;;;;;;;4.10;3.70;;;;;;;22.33;67.10;99216.41;5058000;28;20283;-82
2021/06/25 00:20:42;;;;;;;4.57;4.20;;;;;;;22.38;66.96;99203.47;5058206;28;20277;-83
2021/06/25 00:23:09;;;;;;;5.37;3.97;;;;;;;22.23;67.26;99198.34;5059467;28;20277;-83
2021/06/25 00:25:36;;;;;;;5.13;4.23;;;;;;;22.16;67.37;99191.69;5058278;28;20275;-79
2021/06/25 00:28:03;;;;;;;4.40;3.93;;;;;;;22.11;67.85;99194.53;5041414;28;20290;-83
2021/06/25 00:30:30;;;;;;;5.83;3.90;;;;;;;22.10;67.77;99206.53;5041403;28;20233;-84
2021/06/25 00:32:57;;;;;;;4.40;3.97;;;;;;;21.98;68.69;99207.03;5041549;28;20298;-86
2021/06/25 00:35:24;;;;;;;4.50;3.70;;;;;;;22.08;68.43;99195.13;5058189;28;20705;-85
2021/06/25 00:37:51;;;;;;;4.87;3.80;;;;;;;21.99;68.33;99191.50;5057973;28;20706;-85
2021/06/25 00:40:18;;;;;;;5.17;4.23;;;;;;;21.87;69.06;99198.25;5057781;28;20250;-87
2021/06/25 00:42:45;;;;;;;4.30;3.97;;;;;;;21.87;69.20;99222.81;5058022;28;20330;-87
2021/06/25 00:45:17;;;;;;;6.27;4.17;;;;;;;21.92;69.28;99230.88;5057568;28;20238;-87
2021/06/25 00:47:45;;;;;;;3.87;3.53;;;;;;;21.81;68.85;99224.00;5041333;28;20244;-86
2021/06/25 00:50:15;;;;;;;4.13;3.70;;;;;;;21.73;69.18;99253.91;5058336;28;20313;-88
2021/06/25 00:52:43;;;;;;;3.80;3.50;;;;;;;21.73;68.92;99257.44;5024820;28;20313;-87
2021/06/25 00:55:10;;;;;;;4.33;3.30;;;;;;;21.61;68.65;99267.19;5041123;28;20594;-85
2021/06/25 00:57:37;;;;;;;3.50;3.20;;;;;;;21.61;68.34;99273.44;5057961;28;20228;-83
2021/06/25 01:00:05;;;;;;;5.17;3.13;;;;;;;21.59;67.47;99272.97;5024311;28;20305;-84
2021/06/25 01:02:32;;;;;;;4.30;3.00;;;;;;;21.44;67.59;99254.16;5041076;28;20235;-85
2021/06/25 01:04:59;;;;;;;3.50;3.03;;;;;;;21.54;66.94;99256.69;5057441;28;20326;-83
2021/06/25 01:07:26;;;;;;;4.50;2.87;;;;;;;21.53;67.40;99280.41;5057405;28;20275;-83
2021/06/25 01:09:53;;;;;;;3.53;3.23;;;;;;;21.40;67.94;99272.22;5040838;28;20230;-87
2021/06/25 01:12:20;;;;;;;4.22;2.95;;;;;;;21.28;68.37;99301.81;5058067;28;20238;-86
2021/06/25 01:14:47;;;;;;;4.10;3.00;;;;;;;21.24;68.42;99296.16;5057367;28;20233;-86
2021/06/25 01:17:31;;;;;;;4.20;3.23;;;;;;;21.34;67.95;99308.81;5057320;28;20225;-85
2021/06/25 01:19:59;;;;;;;4.63;3.13;;;;;;;21.15;68.32;99297.94;5057441;28;20238;-83
2021/06/25 01:22:34;;;;;;;3.27;2.87;;;;;;;21.22;67.71;99294.88;5057031;28;20226;-84
2021/06/25 01:25:13;;;;;;;4.67;2.73;;;;;;;21.21;66.93;99299.50;5057092;28;20246;-85
2021/06/25 01:27:41;;;;;;;6.43;2.70;;;;;;;21.10;67.39;99306.97;5040806;28;20232;-80
2021/06/25 01:30:14;;;;;;;3.23;2.70;;;;;;;21.14;65.91;99301.00;5040103;28;20226;-83
2021/06/25 01:32:41;;;;;;;3.47;2.93;;;;;;;21.05;66.22;99285.28;5057976;28;20231;-87
2021/06/25 01:35:09;;;;;;;2.97;2.63;;;;;;;20.97;66.60;99280.50;5056930;28;20644;-85
2021/06/25 01:37:36;;;;;;;3.53;2.73;;;;;;;21.02;66.73;99279.63;5057729;28;20233;-83
2021/06/25 01:40:06;;;;;;;3.10;2.80;;;;;;;20.89;67.19;99262.13;5040223;28;20232;-86
2021/06/25 01:42:35;;;;;;;3.07;2.87;;;;;;;20.90;67.85;99277.31;5040771;28;20246;-83
2021/06/25 01:45:09;;;;;;;3.20;2.90;;;;;;;20.88;67.81;99278.75;5056743;28;20249;-86
2021/06/25 01:47:36;;;;;;;4.17;3.23;;;;;;;20.81;68.02;99295.44;5040122;28;20241;-87
2021/06/25 01:50:06;;;;;;;3.37;3.03;;;;;;;20.70;68.67;99302.16;5056430;28;20270;-84
2021/06/25 01:52:33;;;;;;;3.20;2.90;;;;;;;20.68;68.67;99317.94;5040065;28;20307;-87
2021/06/25 01:54:59;;;;;;;3.50;3.20;;;;;;;20.65;69.06;99307.66;5040203;28;20308;-86
2021/06/25 01:57:26;;;;;;;3.70;3.33;;;;;;;20.66;68.77;99314.72;5039940;28;20229;-84
2021/06/25 01:59:53;;;;;;;3.50;3.20;;;;;;;20.61;69.20;99309.34;5023311;28;20228;-80
2021/06/25 02:02:20;;;;;;;3.90;3.63;;;;;;;20.52;70.00;99301.03;5039621;28;20260;-79
2021/06/25 02:04:47;;;;;;;3.83;3.40;;;;;;;20.55;69.13;99300.44;5039926;28;20231;-82
2021/06/25 02:07:13;;;;;;;3.60;3.30;;;;;;;20.59;69.21;99297.94;5056431;28;20226;-85
2021/06/25 02:09:40;;;;;;;4.13;3.73;;;;;;;20.53;69.25;99289.03;5056236;28;20681;-85
2021/06/25 02:12:07;;;;;;;3.80;3.50;;;;;;;20.53;69.59;99299.91;5055948;28;20229;-82
2021/06/25 02:14:34;;;;;;;4.00;3.70;;;;;;;20.42;69.74;99295.72;5039440;28;20311;-84
2021/06/25 02:17:01;;;;;;;4.67;3.70;;;;;;;20.38;70.02;99286.53;5023215;28;20233;-85
2021/06/25 02:19:28;;;;;;;4.03;3.60;;;;;;;20.51;69.76;99295.88;5057085;28;20247;-82
2021/06/25 02:21:54;;;;;;;4.43;4.03;;;;;;;20.45;69.35;99297.84;5056020;28;20314;-86
2021/06/25 02:24:21;;;;;;;4.00;3.70;;;;;;;20.43;69.29;99296.53;5039122;28;20235;-83
2021/06/25 02:26:48;;;;;;;4.60;4.20;;;;;;;20.43;69.48;99296.53;5055934;28;20251;-86
2021/06/25 02:29:15;;;;;;;4.50;4.20;;;;;;;20.42;69.59;99281.31;5055764;28;20318;-84
2021/06/25 02:31:42;;;;;;;4.43;3.90;;;;;;;20.48;69.63;99296.47;5039415;28;20366;-86
2021/06/25 02:34:09;;;;;;;4.10;3.70;;;;;;;20.47;69.87;99283.97;5038647;28;20694;-81
2021/06/25 02:36:35;;;;;;;5.40;4.17;;;;;;;20.59;69.02;99297.94;5022987;28;20307;-88
2021/06/25 02:39:03;;;;;;;4.40;4.10;;;;;;;20.62;69.06;99289.97;5056745;28;20224;-85
2021/06/25 02:41:30;;;;;;;4.07;3.77;;;;;;;20.73;68.57;99295.28;5055834;28;20231;-83
2021/06/25 02:43:57;;;;;;;3.70;3.40;;;;;;;20.78;68.14;99290.59;5038831;28;20260;-86
2021/06/25 02:46:24;;;;;;;3.43;3.13;;;;;;;20.75;68.08;99285.75;5038740;28;20254;-84
2021/06/25 02:48:51;;;;;;;3.40;3.20;;;;;;;20.76;68.28;99289.28;5039026;28;20228;-83
2021/06/25 02:51:18;;;;;;;4.30;3.50;;;;;;;20.63;68.49;99291.59;5056328;28;20238;-82
2021/06/25 02:53:45;;;;;;;3.17;2.97;;;;;;;20.75;67.73;99284.94;5055545;28;20258;-85
2021/06/25 02:56:11;;;;;;;5.40;2.90;;;;;;;20.74;67.69;99280.59;5038457;28;20287;-85
2021/06/25 02:58:38;;;;;;;3.50;3.20;;;;;;;20.66;68.12;99265.72;5055540;28;20308;-85
2021/06/25 03:01:05;;;;;;;3.17;2.90;;;;;;;20.60;68.04;99277.78;5056410;28;20583;-83
2021/06/25 03:03:32;;;;;;;3.93;3.00;;;;;;;20.47;68.55;99273.88;5055414;28;20226;-86
2021/06/25 03:05:58;;;;;;;3.30;3.10;;;;;;;20.46;68.67;99285.88;5055405;28;20267;-82
2021/06/25 03:08:25;;;;;;;2.87;2.67;;;;;;;20.48;68.63;99280.94;5038299;28;20290;-84
2021/06/25 03:10:52;;;;;;;3.57;3.00;;;;;;;20.52;68.41;99283.91;5055184;28;20316;-85
2021/06/25 03:13:20;;;;;;;3.37;3.07;;;;;;;20.53;67.88;99283.56;5056091;28;20543;-87
2021/06/25 03:15:47;;;;;;;2.90;2.70;;;;;;;20.49;68.20;99282.56;5055081;28;20232;-84
2021/06/25 03:18:15;;;;;;;2.93;2.63;;;;;;;20.49;68.17;99284.47;5038157;28;20313;-82
2021/06/25 03:20:42;;;;;;;2.93;2.73;;;;;;;20.52;68.01;99292.88;5056018;28;20312;-85
2021/06/25 03:23:09;;;;;;;3.13;2.80;;;;;;;20.58;67.59;99288.13;5038470;28;20311;-84
2021/06/25 03:25:36;;;;;;;2.60;2.40;;;;;;;20.60;67.10;99270.44;5021980;28;20253;-82
2021/06/25 03:28:03;;;;;;;2.83;2.60;;;;;;;20.63;67.05;99269.03;5037874;28;20302;-85
2021/06/25 03:30:33;;;;;;;3.27;2.97;;;;;;;20.60;67.36;99273.16;5054941;28;20251;-83
2021/06/25 03:33:01;;;;;;;3.07;2.80;;;;;;;20.64;67.32;99276.91;5055868;28;20236;-82
2021/06/25 03:35:28;;;;;;;2.97;2.77;;;;;;;20.56;67.50;99282.19;5022048;28;20222;-84
2021/06/25 03:37:55;;;;;;;3.13;2.93;;;;;;;20.46;67.63;99268.72;5038399;28;20291;-83
2021/06/25 03:40:24;;;;;;;4.20;3.03;;;;;;;20.50;67.45;99278.72;5053086;28;20318;-83
2021/06/25 03:42:51;;;;;;;2.40;2.30;;;;;;;20.57;67.21;99279.19;5053995;28;20239;-84
2021/06/25 03:45:18;;;;;;;2.80;2.60;;;;;;;20.72;66.78;99280.88;5054142;28;20237;-80
2021/06/25 03:47:45;;;;;;;2.90;2.70;;;;;;;20.71;67.00;99273.00;5054415;28;20226;-84
2021/06/25 03:50:12;;;;;;;3.13;2.67;;;;;;;20.84;66.39;99275.00;5054777;28;20236;-86
2021/06/25 03:52:39;;;;;;;3.03;2.83;;;;;;;20.85;66.37;99266.53;5021655;28;20260;-86
2021/06/25 03:55:11;;;;;;;3.03;2.83;;;;;;;20.88;66.43;99282.28;5038139;28;20581;-84
2021/06/25 03:57:39;;;;;;;2.90;2.70;;;;;;;21.08;65.16;99281.16;5038073;28;20524;-84
2021/06/25 04:00:09;;;;;;;2.53;2.33;;;;;;;21.01;65.91;99280.72;5037241;28;20264;-81
2021/06/25 04:02:38;;;;;;;2.87;2.67;;;;;;;21.08;65.55;99281.97;5038385;28;20222;-84
2021/06/25 04:05:07;;;;;;;4.33;2.73;;;;;;;21.49;64.64;99273.13;5054206;28;20319;-83
2021/06/25 04:07:34;;;;;;;2.90;2.60;;;;;;;22.18;62.24;99280.28;5037936;28;20229;-84
2021/06/25 04:10:02;;;;;;;2.70;2.50;;;;;;;22.91;58.72;99273.78;5053683;28;20231;-82
2021/06/25 04:12:28;;;;;;;4.67;2.93;;;;;;;23.49;56.57;99279.25;5054243;28;20239;-82
2021/06/25 04:14:55;;;;;;;2.43;2.23;;;;;;;23.81;55.95;99290.97;5053873;28;20229;-85
2021/06/25 04:17:22;;;;;;;2.40;2.20;;;;;;;24.10;54.29;99277.59;5054298;28;20237;-85
2021/06/25 04:19:49;;;;;;;2.30;2.20;;;;;;;24.35;53.46;99285.13;5054126;28;20603;-85
2021/06/25 04:22:16;;;;;;;2.20;2.00;;;;;;;24.33;53.04;99279.13;5037084;28;20230;-83
2021/06/25 04:24:42;;;;;;;2.33;2.15;;;;;;;24.78;51.48;99284.34;5055221;28;20271;-79
2021/06/25 04:27:09;;;;;;;2.40;1.98;;;;;;;25.11;50.54;99279.22;5037302;28;20233;-81
2021/06/25 04:29:37;;;;;;;1.90;1.77;;;;;;;25.40;48.90;99304.03;5054847;28;20565;-84
2021/06/25 04:32:04;;;;;;;2.55;1.63;;;;;;;26.40;46.72;99405.22;5037154;28;20287;-81
2021/06/25 04:34:31;;;;;;;1.80;1.70;;;;;;;26.83;45.58;99410.50;5054863;28;20651;-79
2021/06/25 04:36:58;;;;;;;1.85;1.60;;;;;;;27.58;43.06;99409.50;5054081;28;20227;-81
2021/06/25 04:39:25;;;;;;;2.25;1.50;;;;;;;27.76;42.15;99396.41;5054081;28;20610;-81
2021/06/25 04:41:51;;;;;;;1.77;1.60;;;;;;;27.01;43.99;99311.13;5037612;28;20232;-81
2021/06/25 04:44:18;;;;;;;1.63;1.52;;;;;;;25.62;46.52;99311.28;5037071;28;20609;-84
2021/06/25 04:46:45;;;;;;;2.80;1.73;;;;;;;25.03;48.20;99297.28;5037490;28;20236;-82
2021/06/25 04:49:12;;;;;;;1.60;1.50;;;;;;;24.66;49.98;99303.38;5054798;28;20279;-79
2021/06/25 04:51:39;;;;;;;1.70;1.60;;;;;;;24.47;50.74;99301.72;5054003;28;20314;-84
2021/06/25 04:54:05;;;;;;;1.77;1.67;;;;;;;24.49;51.12;99312.38;5021890;28;20309;-78
2021/06/25 04:56:32;;;;;;;3.13;1.40;;;;;;;24.29;50.93;99305.53;5058451;28;20739;-85
2021/06/25 04:58:59;;;;;;;1.50;1.40;;;;;;;24.10;50.77;99308.50;5041312;28;20252;-81
2021/06/25 05:01:25;;;;;;;3.05;1.38;;;;;;;23.90;51.28;99306.31;5058386;28;20276;-83
2021/06/25 05:03:52;;;;;;;1.92;1.50;;;;;;;23.80;51.95;99311.25;5041073;28;20229;-85
2021/06/25 05:06:19;;;;;;;1.40;1.30;;;;;;;23.75;51.37;99303.19;5040933;28;20222;-86
2021/06/25 05:08:45;;;;;;;1.63;1.27;;;;;;;23.69;51.91;99294.31;5040970;28;20320;-85
2021/06/25 05:11:12;;;;;;;2.22;1.10;;;;;;;23.83;52.01;99308.72;5040798;28;20552;-83
2021/06/25 05:13:39;;;;;;;1.40;1.30;;;;;;;23.67;51.58;99291.06;5040688;28;20222;-85
2021/06/25 05:16:06;;;;;;;1.88;1.30;;;;;;;23.86;51.19;99316.28;5056958;28;20225;-80
2021/06/25 05:18:32;;;;;;;1.20;1.10;;;;;;;23.63;52.48;99320.16;5040862;28;20316;-86
2021/06/25 05:21:18;;;;;;;2.00;1.80;;;;;;;23.69;51.19;99319.75;5057342;28;20681;-85
2021/06/25 05:23:45;;;;;;;1.40;1.30;;;;;;;23.56;51.83;99312.41;5058058;28;20539;-83
2021/06/25 05:26:11;;;;;;;1.58;1.20;;;;;;;23.73;52.04;99324.56;5056647;28;20244;-83
2021/06/25 05:28:38;;;;;;;1.40;1.30;;;;;;;23.96;51.31;99326.94;5057273;28;20222;-80
2021/06/25 05:31:05;;;;;;;1.23;1.13;;;;;;;23.89;51.56;99326.56;5040961;28;20243;-83
2021/06/25 05:33:32;;;;;;;1.90;1.20;;;;;;;23.87;51.38;99320.63;5040711;28;20229;-83
2021/06/25 05:35:59;;;;;;;1.90;1.23;;;;;;;24.06;51.64;99337.63;5040142;28;20252;-80
2021/06/25 05:38:25;;;;;;;2.55;1.40;;;;;;;23.91;51.68;99327.09;5039788;28;20312;-83
2021/06/25 05:40:52;;;;;;;3.72;1.30;;;;;;;24.00;51.02;99327.13;5040210;28;20882;-80
2021/06/25 05:43:19;;;;;;;1.80;1.45;;;;;;;24.12;50.95;99319.91;5055459;28;20316;-82
2021/06/25 05:45:46;;;;;;;1.63;1.40;;;;;;;24.07;50.48;99316.53;5053978;28;20232;-85
2021/06/25 05:48:13;;;;;;;4.88;1.40;;;;;;;24.26;51.14;99330.81;5054321;28;20259;-83
2021/06/25 05:50:40;;;;;;;2.33;1.35;;;;;;;24.44;51.09;99328.94;5056743;28;20264;-85
2021/06/25 05:53:07;;;;;;;1.73;1.33;;;;;;;24.67;50.09;99332.38;5037716;28;20637;-82
2021/06/25 05:55:34;;;;;;;3.22;1.40;;;;;;;24.60;49.69;99329.28;5056788;28;20348;-82
2021/06/25 05:58:01;;;;;;;1.33;1.23;;;;;;;24.22;50.25;99321.59;5056115;28;20225;-85
2021/06/25 06:00:28;;;;;;;1.33;1.23;;;;;;;24.39;50.02;99332.63;5023645;28;20279;-85
2021/06/25 06:02:56;;;;;;;1.70;1.30;;;;;;;24.56;49.61;99318.97;5056441;28;20232;-85
2021/06/25 06:05:22;;;;;;;2.35;1.40;;;;;;;24.51;49.97;99323.78;5056257;28;20221;-85
2021/06/25 06:07:49;;;;;;;1.90;1.23;;;;;;;24.72;49.29;99324.00;5040108;28;20276;-83
2021/06/25 06:10:16;;;;;;;1.70;1.30;;;;;;;24.81;49.53;99331.13;5055994;28;20225;-84
2021/06/25 06:12:44;;;;;;;1.88;1.40;;;;;;;24.92;48.73;99337.09;5040147;28;20256;-85
2021/06/25 06:15:12;;;;;;;1.60;1.50;;;;;;;24.79;48.06;99335.28;5039870;28;20237;-83
2021/06/25 06:17:41;;;;;;;1.75;1.63;;;;;;;24.90;47.86;99339.38;5056399;28;20238;-82
2021/06/25 06:20:11;;;;;;;2.33;1.55;;;;;;;25.01;48.76;99340.66;5039563;28;20645;-85
2021/06/25 06:38:48;;;;;;;1.50;1.40;;;;;;;25.23;48.60;99348.75;5055994;28;20225;-87
2021/06/25 06:41:15;;;;;;;1.60;1.25;;;;;;;25.41;47.82;99342.13;5022803;28;20319;-84
2021/06/25 06:43:43;;;;;;;1.35;1.25;;;;;;;25.30;47.44;99365.50;5038819;28;20256;-83
2021/06/25 06:46:11;;;;;;;1.60;1.45;;;;;;;25.44;47.54;99368.06;5055226;28;20256;-85
2021/06/25 06:48:38;;;;;;;1.52;1.42;;;;;;;25.55;47.02;99368.59;5039495;28;20645;-84
2021/06/25 06:51:05;;;;;;;1.50;1.30;;;;;;;25.87;46.94;99370.78;5039048;28;20232;-84
2021/06/25 06:53:33;;;;;;;1.38;1.30;;;;;;;25.91;46.80;99376.41;5056296;28;20239;-82
2021/06/25 06:56:01;;;;;;;2.03;1.35;;;;;;;25.81;46.62;99375.63;5053426;28;20228;-82
2021/06/25 06:58:28;;;;;;;1.42;1.33;;;;;;;25.78;46.45;99368.06;5035719;28;20226;-81
2021/06/25 07:00:55;;;;;;;1.45;1.00;;;;;;;25.75;46.40;99381.63;5019479;28;20508;-79
2021/06/25 07:03:25;;;;;;;2.33;1.27;;;;;;;25.58;46.29;99365.19;5034945;28;20259;-83
2021/06/25 07:05:51;;;;;;;1.98;1.20;;;;;;;25.62;46.91;99383.41;5018815;28;20224;-87
2021/06/25 07:08:18;;;;;;;2.22;1.40;;;;;;;25.65;47.82;99374.56;5017703;28;20321;-87
2021/06/25 07:10:45;;;;;;;1.40;1.30;;;;;;;25.65;47.69;99380.03;5002837;28;20258;-86
2021/06/25 07:13:13;;;;;;;1.35;1.25;;;;;;;25.33;47.49;99370.34;5035536;28;20276;-84
2021/06/25 07:15:43;;;;;;;1.17;1.10;;;;;;;25.62;47.46;99377.91;5034972;28;20304;-86
2021/06/25 07:18:10;;;;;;;1.63;1.20;;;;;;;25.73;46.83;99375.66;5001933;28;20317;-83
2021/06/25 07:20:37;;;;;;;1.38;1.15;;;;;;;25.77;46.47;99371.94;5034949;28;20523;-79
2021/06/25 07:23:04;;;;;;;1.38;1.27;;;;;;;25.58;46.24;99381.63;5034343;28;20226;-84
2021/06/25 07:25:31;;;;;;;1.13;1.02;;;;;;;25.55;46.29;99379.56;5034615;28;20569;-77
2021/06/25 07:27:58;;;;;;;1.10;1.05;;;;;;;25.74;46.16;99386.31;5002087;28;20256;-81
2021/06/25 07:30:25;;;;;;;1.38;1.27;;;;;;;25.63;46.24;99406.16;5018478;28;20313;-80
2021/06/25 07:32:53;;;;;;;1.65;1.25;;;;;;;25.43;46.34;99402.09;5002185;28;20238;-86
2021/06/25 07:35:20;;;;;;;1.67;1.42;;;;;;;25.46;46.39;99398.72;5018174;28;20345;-83
2021/06/25 07:37:46;;;;;;;2.10;1.10;;;;;;;25.52;46.53;99402.94;5022812;28;20715;-83
2021/06/25 07:40:13;;;;;;;3.80;1.48;;;;;;;25.55;45.96;99407.78;5052950;28;20278;-78
2021/06/25 07:42:40;;;;;;;1.80;1.20;;;;;;;25.18;46.59;99411.13;5053479;28;20242;-83
2021/06/25 07:45:09;;;;;;;1.33;1.23;;;;;;;25.29;46.28;99409.72;5048154;28;20528;-80
2021/06/25 07:47:39;;;;;;;1.10;1.10;;;;;;;25.62;45.55;99404.53;5017561;28;20255;-77
2021/06/25 07:50:08;;;;;;;1.42;1.30;;;;;;;25.76;44.70;99402.44;5034707;28;20227;-77
2021/06/25 07:52:34;;;;;;;1.67;1.25;;;;;;;25.45;44.63;99399.84;5052780;28;20306;-79
2021/06/25 07:55:02;;;;;;;1.50;1.40;;;;;;;25.61;44.66;99412.00;5051907;28;20279;-81
2021/06/25 07:57:29;;;;;;;1.33;1.23;;;;;;;25.62;45.62;99413.59;5052278;28;20333;-80
2021/06/25 07:59:55;;;;;;;2.75;1.20;;;;;;;25.76;45.08;99414.22;5054835;28;20236;-84
2021/06/25 08:02:22;;;;;;;1.77;1.27;;;;;;;25.63;45.33;99414.41;5052806;28;20313;-79
2021/06/25 08:04:49;;;;;;;2.72;1.30;;;;;;;25.63;45.99;99417.94;5036845;28;20234;-85
2021/06/25 08:07:17;;;;;;;2.63;1.20;;;;;;;25.81;45.54;99396.78;5054871;28;20326;-81
2021/06/25 08:09:44;;;;;;;1.15;1.10;;;;;;;25.87;44.53;99403.72;5053725;28;20233;-81
2021/06/25 08:12:12;;;;;;;1.38;1.25;;;;;;;26.00;44.06;99401.91;5036863;28;20317;-81
2021/06/25 08:14:40;;;;;;;2.97;1.33;;;;;;;26.14;43.61;99411.56;5037063;28;20232;-82
2021/06/25 08:17:07;;;;;;;1.00;1.00;;;;;;;26.15;44.37;99412.38;5053477;28;20246;-83
2021/06/25 08:19:34;;;;;;;1.58;1.10;;;;;;;26.19;45.12;99413.31;5036632;28;20220;-81
2021/06/25 08:22:01;;;;;;;1.75;1.00;;;;;;;26.29;44.74;99394.59;5020592;28;20310;-84
2021/06/25 08:24:30;;;;;;;2.20;1.10;;;;;;;26.46;44.68;99390.94;5053697;28;20232;-81
2021/06/25 08:26:57;;;;;;;2.05;1.00;;;;;;;26.42;43.37;99402.94;5053421;28;20708;-82
2021/06/25 08:29:24;;;;;;;2.40;1.00;;;;;;;26.15;43.98;99410.44;5058110;28;20579;-84
2021/06/25 08:31:50;;;;;;;1.45;1.20;;;;;;;26.19;44.13;99416.88;5057275;28;20651;-80
2021/06/25 08:34:17;;;;;;;2.75;1.30;;;;;;;26.26;43.59;99425.47;5039794;28;20227;-82
2021/06/25 08:36:44;;;;;;;1.77;1.00;;;;;;;26.37;43.50;99427.81;5056514;28;20640;-82
2021/06/25 08:39:11;;;;;;;1.05;1.00;;;;;;;26.26;42.94;99443.88;5039691;28;20250;-78
2021/06/25 08:41:38;;;;;;;1.05;1.05;;;;;;;26.20;43.88;99429.47;5056696;28;20218;-84
2021/06/25 08:44:06;;;;;;;3.47;1.23;;;;;;;26.59;42.28;99427.59;5038913;28;20323;-81
2021/06/25 08:46:33;;;;;;;1.55;1.00;;;;;;;26.36;42.59;99426.25;5053465;28;20229;-79
2021/06/25 08:49:04;;;;;;;1.20;1.10;;;;;;;26.09;42.72;99419.97;5054276;28;20233;-82
2021/06/25 08:51:32;;;;;;;2.30;1.15;;;;;;;26.29;43.20;99438.53;5055077;28;20236;-77
2021/06/25 08:53:59;;;;;;;2.28;1.10;;;;;;;26.34;42.91;99428.50;5038396;28;20230;-77
2021/06/25 08:56:30;;;;;;;0.90;0.90;;;;;;;26.45;42.74;99441.56;5054493;28;20261;-78
2021/06/25 08:58:57;;;;;;;1.73;1.08;;;;;;;26.19;42.89;99427.84;5038549;28;20270;-80
2021/06/25 09:01:24;;;;;;;1.15;1.10;;;;;;;26.29;42.91;99426.72;5055296;28;20236;-82
2021/06/25 09:03:52;;;;;;;1.00;1.00;;;;;;;26.10;43.05;99429.00;5043925;28;20221;-82
2021/06/25 09:06:20;;;;;;;1.00;1.00;;;;;;;26.05;43.26;99424.50;5051258;28;20222;-82
2021/06/25 09:08:47;;;;;;;2.45;1.15;;;;;;;25.96;43.56;99420.97;5036166;28;20246;-77
2021/06/25 09:11:25;;;;;;;1.52;1.42;;;;;;;26.01;44.07;99429.03;5029624;28;20291;-82
2021/06/25 09:14:03;;;;;;;3.80;1.40;;;;;;;25.96;44.09;99414.66;5023048;28;20668;-79
2021/06/25 09:16:34;;;;;;;1.70;1.20;;;;;;;26.10;43.54;99413.34;5055519;28;20219;-79
2021/06/25 09:19:07;;;;;;;2.00;1.38;;;;;;;26.11;43.73;99423.22;5035622;28;20265;-83
2021/06/25 09:21:40;;;;;;;1.48;1.20;;;;;;;26.24;44.00;99424.16;5036329;28;20231;-81
2021/06/25 09:24:21;;;;;;;1.40;1.30;;;;;;;26.22;43.93;99409.97;5034484;28;20585;-80
2021/06/25 09:26:49;;;;;;;3.22;1.38;;;;;;;26.10;43.18;99409.78;5035624;28;20292;-77
2021/06/25 09:29:19;;;;;;;1.83;1.30;;;;;;;26.06;43.53;99412.41;5003059;28;20331;-79
2021/06/25 09:32:00;;;;;;;2.28;1.35;;;;;;;26.11;43.00;99414.16;5036348;28;20230;-80
2021/06/25 09:34:42;;;;;;;2.25;1.13;;;;;;;26.22;43.08;99409.97;5035496;28;20693;-82
2021/06/25 09:37:13;;;;;;;1.55;1.00;;;;;;;26.34;42.76;99431.25;5028517;28;20233;-84
2021/06/25 09:39:42;;;;;;;1.23;1.13;;;;;;;26.53;43.21;99420.66;5025667;28;20226;-83
2021/06/25 09:42:20;;;;;;;1.52;1.20;;;;;;;26.75;42.27;99412.16;5017792;28;20354;-82
2021/06/25 09:45:04;;;;;;;1.02;1.02;;;;;;;26.67;42.82;99415.75;5018626;28;20238;-82
2021/06/25 09:47:39;;;;;;;1.02;1.02;;;;;;;26.93;41.91;99399.13;5032129;28;20228;-79
2021/06/25 09:50:08;;;;;;;1.38;1.00;;;;;;;27.08;41.75;99390.31;5019596;28;20235;-84
2021/06/25 09:52:50;;;;;;;1.05;1.00;;;;;;;26.99;41.64;99378.56;5035870;28;20258;-76
2021/06/25 09:55:27;;;;;;;1.17;0.98;;;;;;;27.06;41.61;99376.88;5018029;28;20236;-80
2021/06/25 10:03:52;;;;;;;1.58;1.30;;;;;;;26.97;41.10;99386.38;5020341;28;20575;-80
2021/06/25 10:06:26;;;;;;;0.90;0.90;;;;;;;26.68;41.72;99379.72;5017754;28;20246;-80
2021/06/25 10:08:54;;;;;;;1.90;1.30;;;;;;;26.68;41.98;99385.22;5018344;28;20239;-82
2021/06/25 10:11:24;;;;;;;1.30;1.20;;;;;;;26.82;41.91;99384.16;5035699;28;20246;-78
2021/06/25 10:13:54;;;;;;;1.40;1.30;;;;;;;26.68;41.70;99382.47;5018240;28;20246;-81
2021/06/25 10:16:22;;;;;;;1.95;1.10;;;;;;;26.76;42.46;99382.72;5017956;28;20312;-78
2021/06/25 10:18:54;;;;;;;1.88;1.20;;;;;;;26.60;42.22;99390.72;5051968;28;20231;-79
2021/06/25 10:21:31;;;;;;;2.17;1.40;;;;;;;26.69;42.66;99385.97;5036200;28;20237;-77
2021/06/25 10:24:02;;;;;;;1.40;1.30;;;;;;;26.86;41.27;99391.44;5019589;28;20538;-78
2021/06/25 10:26:30;;;;;;;1.63;1.20;;;;;;;26.68;41.55;99395.38;5035192;28;20240;-83
2021/06/25 10:28:57;;;;;;;1.88;1.30;;;;;;;26.96;41.21;99388.31;5035935;28;20244;-77
2021/06/25 10:31:25;;;;;;;1.20;1.10;;;;;;;27.35;40.74;99377.97;5035726;28;20238;-80
2021/06/25 10:33:53;;;;;;;1.20;1.10;;;;;;;27.49;39.97;99381.25;5019283;28;20553;-81
2021/06/25 10:36:26;;;;;;;1.88;1.17;;;;;;;27.62;39.94;99384.91;5035944;28;20220;-82
2021/06/25 10:38:53;;;;;;;1.38;1.23;;;;;;;27.60;40.02;99404.50;5035285;28;20241;-81
2021/06/25 10:41:22;;;;;;;1.25;1.15;;;;;;;27.41;39.88;99415.13;5018072;28;20307;-79
2021/06/25 10:43:53;;;;;;;1.88;1.00;;;;;;;27.33;39.66;99411.31;5036344;28;20539;-79
2021/06/25 10:46:25;;;;;;;1.33;1.20;;;;;;;27.15;40.47;99410.66;5034687;28;20222;-80
2021/06/25 10:48:53;;;;;;;1.85;1.00;;;;;;;26.91;40.79;99402.25;5036489;28;20226;-81
2021/06/25 10:51:29;;;;;;;0.95;0.90;;;;;;;27.31;40.32;99419.09;5034387;28;20248;-82
2021/06/25 10:54:14;;;;;;;2.10;1.00;;;;;;;27.26;40.17;99419.28;5030308;28;20226;-82
2021/06/25 10:56:44;;;;;;;1.23;0.90;;;;;;;27.21;40.25;99418.69;5018764;28;20242;-83
2021/06/25 10:59:30;;;;;;;1.20;1.10;;;;;;;26.72;41.15;99399.09;5036131;28;20229;-81
2021/06/25 11:02:04;;;;;;;1.10;1.00;;;;;;;26.85;40.88;99389.78;5035053;28;20570;-81
2021/06/25 11:04:42;;;;;;;0.90;0.90;;;;;;;27.09;40.44;99395.47;5034595;28;20232;-78
2021/06/25 11:07:14;;;;;;;3.45;1.30;;;;;;;27.08;40.33;99391.13;5018486;28;20301;-81
2021/06/25 11:09:53;;;;;;;2.15;1.30;;;;;;;27.26;40.15;99391.78;5034782;28;20236;-85
2021/06/25 11:12:27;;;;;;;2.22;1.30;;;;;;;27.32;40.19;99401.47;5035518;28;20595;-81
2021/06/25 11:15:03;;;;;;;1.10;1.10;;;;;;;27.65;39.88;99412.53;5034942;28;20233;-81
2021/06/25 11:17:45;;;;;;;1.27;0.93;;;;;;;28.35;38.30;99419.78;5035867;28;20661;-78
2021/06/25 11:20:23;;;;;;;1.00;1.00;;;;;;;28.57;37.83;99414.97;5034170;28;20258;-85
2021/06/25 11:22:56;;;;;;;2.90;1.15;;;;;;;28.97;37.70;99413.16;5033885;28;20264;-81
2021/06/25 11:25:40;;;;;;;1.10;1.10;;;;;;;29.49;36.42;99407.63;5018218;28;20314;-80
2021/06/25 11:28:19;;;;;;;1.17;1.08;;;;;;;29.55;35.76;99391.63;5033546;28;20222;-82
2021/06/25 11:31:01;;;;;;;1.80;1.10;;;;;;;29.48;35.94;99397.78;5035277;28;20241;-83
2021/06/25 11:33:31;;;;;;;0.98;0.90;;;;;;;29.39;36.28;99399.06;5034441;28;20230;-82
2021/06/25 11:36:13;;;;;;;1.48;1.05;;;;;;;29.12;37.22;99393.13;5035846;28;20237;-84
2021/06/25 11:38:59;;;;;;;1.33;1.10;;;;;;;28.94;36.66;99391.75;5034377;28;20516;-80
2021/06/25 11:41:48;;;;;;;1.05;1.02;;;;;;;28.72;37.06;99404.09;5035549;28;20325;-85
2021/06/25 11:44:27;;;;;;;1.55;1.10;;;;;;;28.59;36.68;99396.94;5017241;28;20246;-83
2021/06/25 11:47:06;;;;;;;1.48;1.10;;;;;;;28.74;36.54;99399.00;5033256;28;20229;-83
2021/06/25 11:49:37;;;;;;;2.15;1.10;;;;;;;28.77;37.06;99405.81;5016779;28;20242;-84
2021/06/25 11:52:16;;;;;;;1.80;1.02;;;;;;;28.79;36.51;99397.97;5033089;28;20766;-84
2021/06/25 11:54:50;;;;;;;1.98;1.27;;;;;;;28.62;36.96;99393.50;5019144;28;20231;-82
2021/06/25 11:57:22;;;;;;;1.05;0.80;;;;;;;29.22;36.97;99389.88;5042085;28;20555;-82
2021/06/25 12:00:11;;;;;;;1.13;0.90;;;;;;;29.07;36.75;99393.34;5024549;28;20836;-78
2021/06/25 12:02:46;;;;;;;1.20;1.10;;;;;;;29.63;36.35;99396.22;5044959;28;20296;-82
2021/06/25 12:05:18;;;;;;;0.88;0.88;;;;;;;29.62;35.25;99391.84;5045423;28;20275;-81